Check out our new PWSWeather beta!
PWSweather.com
Personal Weather Stations
Station Observations

PoschiavoCH

Lat: 46.31962499999999, Lon: 10.066551000000004

Elevation: 3517

Station Type: WH 1080

http://www.meteoposchiavo.com

High Low Average
Temperature 30.6°F-0.8°C 27.1°F-2.7°C 28.5°F-1.9°C
Dew Point 30.3°F-0.9°C 26.5°F-3.1°C 27.7°F-2.4°C
Winds Calm Calm Calm Calm Calm NWCalm NW
Wind Gusts -- -- --
Humidity 100% 94% 97%
Pressure 26.13 in884.9 mb 25.86 in875.7 mb -
Precipitation 0.00 in0.0 mm - -
Hour Temp Dew Point Humidity Winds Wind Gusts Pressure Precip Precip Rate Daily Precip Total
12:00 AM 26.2°F-3.2°C 24.7°F-4.1°C 94% Calm Calm -- 26.10 in883.8 mb - 0.00 in0.0 mm 0.00 in0.0 mm
12:10 AM 26.2°F-3.2°C 24.7°F-4.1°C 94% Calm Calm -- 26.10 in883.8 mb - 0.00 in0.0 mm 0.00 in0.0 mm
12:15 AM 27.0°F-2.8°C 24.7°F-4.1°C 91% Calm Calm -- 26.10 in883.8 mb - 0.00 in0.0 mm 0.00 in0.0 mm
12:20 AM 27.1°F-2.7°C 26.7°F-2.9°C 98% Calm Calm -- 26.10 in883.8 mb - 0.00 in0.0 mm 0.00 in0.0 mm
12:25 AM 27.1°F-2.7°C 26.7°F-2.9°C 98% Calm Calm -- 26.10 in883.8 mb - 0.00 in0.0 mm 0.00 in0.0 mm
12:30 AM 27.1°F-2.7°C 26.7°F-2.9°C 98% Calm Calm -- 26.10 in883.8 mb - 0.00 in0.0 mm 0.00 in0.0 mm
12:35 AM 27.0°F-2.8°C 24.7°F-4.1°C 91% Calm Calm -- 26.10 in883.8 mb - 0.00 in0.0 mm 0.00 in0.0 mm
12:40 AM 27.0°F-2.8°C 24.7°F-4.1°C 91% Calm Calm -- 26.10 in883.8 mb - 0.00 in0.0 mm 0.00 in0.0 mm
12:45 AM 27.0°F-2.8°C 24.7°F-4.1°C 91% Calm Calm -- 26.10 in883.8 mb - 0.00 in0.0 mm 0.00 in0.0 mm
12:50 AM 27.1°F-2.7°C 26.7°F-2.9°C 98% Calm Calm -- 26.10 in883.8 mb - 0.00 in0.0 mm 0.00 in0.0 mm
12:55 AM 27.1°F-2.7°C 26.7°F-2.9°C 98% Calm Calm -- 26.10 in883.8 mb - 0.00 in0.0 mm 0.00 in0.0 mm
01:00 AM 27.1°F-2.7°C 26.7°F-2.9°C 98% Calm Calm -- 26.10 in883.8 mb - 0.00 in0.0 mm 0.00 in0.0 mm
01:10 AM 27.3°F-2.6°C 26.6°F-3.0°C 97% Calm Calm -- 26.10 in883.8 mb - 0.00 in0.0 mm 0.00 in0.0 mm
01:15 AM 27.3°F-2.6°C 26.6°F-3.0°C 97% Calm Calm -- 26.10 in883.8 mb - 0.00 in0.0 mm 0.00 in0.0 mm
01:20 AM 27.3°F-2.6°C 26.6°F-3.0°C 97% Calm Calm -- 26.10 in883.8 mb - 0.00 in0.0 mm 0.00 in0.0 mm
01:25 AM 27.3°F-2.6°C 26.6°F-3.0°C 97% Calm Calm -- 26.10 in883.8 mb - 0.00 in0.0 mm 0.00 in0.0 mm
01:30 AM 27.3°F-2.6°C 26.6°F-3.0°C 97% Calm Calm -- 26.10 in883.8 mb - 0.00 in0.0 mm 0.00 in0.0 mm
01:35 AM 27.3°F-2.6°C 26.6°F-3.0°C 97% Calm Calm -- 26.10 in883.8 mb - 0.00 in0.0 mm 0.00 in0.0 mm
01:40 AM 27.3°F-2.6°C 26.6°F-3.0°C 97% Calm Calm -- 26.10 in883.8 mb - 0.00 in0.0 mm 0.00 in0.0 mm
01:45 AM 27.5°F-2.5°C 26.5°F-3.1°C 96% Calm Calm -- 26.13 in884.9 mb - 0.00 in0.0 mm 0.00 in0.0 mm
01:50 AM 27.3°F-2.6°C 26.6°F-3.0°C 97% Calm Calm -- 26.13 in884.9 mb - 0.00 in0.0 mm 0.00 in0.0 mm
01:55 AM 27.5°F-2.5°C 26.5°F-3.1°C 96% Calm Calm -- 26.12 in884.5 mb - 0.00 in0.0 mm 0.00 in0.0 mm
02:00 AM 27.5°F-2.5°C 26.5°F-3.1°C 96% Calm Calm -- 26.13 in884.9 mb - 0.00 in0.0 mm 0.00 in0.0 mm
02:10 AM 27.5°F-2.5°C 26.5°F-3.1°C 96% Calm Calm -- 26.13 in884.9 mb - 0.00 in0.0 mm 0.00 in0.0 mm
02:15 AM 27.5°F-2.5°C 26.5°F-3.1°C 96% Calm Calm -- 26.12 in884.5 mb - 0.00 in0.0 mm 0.00 in0.0 mm
02:20 AM 27.5°F-2.5°C 26.5°F-3.1°C 96% Calm Calm -- 26.12 in884.5 mb - 0.00 in0.0 mm 0.00 in0.0 mm
02:25 AM 27.3°F-2.6°C 26.6°F-3.0°C 97% Calm Calm -- 26.12 in884.5 mb - 0.00 in0.0 mm 0.00 in0.0 mm
02:30 AM 27.3°F-2.6°C 26.6°F-3.0°C 97% Calm Calm -- 26.12 in884.5 mb - 0.00 in0.0 mm 0.00 in0.0 mm
02:35 AM 27.3°F-2.6°C 26.6°F-3.0°C 97% Calm Calm -- 26.12 in884.5 mb - 0.00 in0.0 mm 0.00 in0.0 mm
02:40 AM 27.3°F-2.6°C 26.6°F-3.0°C 97% Calm Calm -- 26.12 in884.5 mb - 0.00 in0.0 mm 0.00 in0.0 mm
02:45 AM 27.3°F-2.6°C 26.6°F-3.0°C 97% Calm Calm -- 26.12 in884.5 mb - 0.00 in0.0 mm 0.00 in0.0 mm
02:50 AM 27.3°F-2.6°C 26.6°F-3.0°C 97% Calm Calm -- 26.12 in884.5 mb - 0.00 in0.0 mm 0.00 in0.0 mm
02:55 AM 27.3°F-2.6°C 26.6°F-3.0°C 97% Calm Calm -- 26.12 in884.5 mb - 0.00 in0.0 mm 0.00 in0.0 mm
03:00 AM 27.3°F-2.6°C 26.6°F-3.0°C 97% Calm Calm -- 26.12 in884.5 mb - 0.00 in0.0 mm 0.00 in0.0 mm
03:10 AM 27.3°F-2.6°C 26.6°F-3.0°C 97% Calm Calm -- 26.12 in884.5 mb - 0.00 in0.0 mm 0.00 in0.0 mm
03:15 AM 27.3°F-2.6°C 26.6°F-3.0°C 97% Calm Calm -- 26.12 in884.5 mb - 0.00 in0.0 mm 0.00 in0.0 mm
03:20 AM 27.3°F-2.6°C 26.6°F-3.0°C 97% Calm Calm -- 26.12 in884.5 mb - 0.00 in0.0 mm 0.00 in0.0 mm
03:25 AM 27.3°F-2.6°C 26.6°F-3.0°C 97% Calm Calm -- 26.12 in884.5 mb - 0.00 in0.0 mm 0.00 in0.0 mm
03:30 AM 27.3°F-2.6°C 26.6°F-3.0°C 97% Calm Calm -- 26.12 in884.5 mb - 0.00 in0.0 mm 0.00 in0.0 mm
03:35 AM 27.3°F-2.6°C 26.6°F-3.0°C 97% Calm Calm -- 26.12 in884.5 mb - 0.00 in0.0 mm 0.00 in0.0 mm
03:40 AM 27.3°F-2.6°C 26.6°F-3.0°C 97% Calm Calm -- 26.12 in884.5 mb - 0.00 in0.0 mm 0.00 in0.0 mm
03:45 AM 27.3°F-2.6°C 26.6°F-3.0°C 97% Calm Calm -- 26.12 in884.5 mb - 0.00 in0.0 mm 0.00 in0.0 mm
03:50 AM 27.3°F-2.6°C 26.6°F-3.0°C 97% Calm Calm -- 26.12 in884.5 mb - 0.00 in0.0 mm 0.00 in0.0 mm
03:55 AM 27.3°F-2.6°C 26.6°F-3.0°C 97% Calm Calm -- 26.12 in884.5 mb - 0.00 in0.0 mm 0.00 in0.0 mm
04:00 AM 27.1°F-2.7°C 26.7°F-2.9°C 98% Calm Calm -- 26.12 in884.5 mb - 0.00 in0.0 mm 0.00 in0.0 mm
04:10 AM 27.1°F-2.7°C 26.7°F-2.9°C 98% Calm Calm -- 26.12 in884.5 mb - 0.00 in0.0 mm 0.00 in0.0 mm
04:15 AM 27.1°F-2.7°C 26.7°F-2.9°C 98% Calm Calm -- 26.12 in884.5 mb - 0.00 in0.0 mm 0.00 in0.0 mm
04:20 AM 27.1°F-2.7°C 26.7°F-2.9°C 98% Calm Calm -- 26.12 in884.5 mb - 0.00 in0.0 mm 0.00 in0.0 mm
04:25 AM 27.1°F-2.7°C 26.7°F-2.9°C 98% Calm Calm -- 26.11 in884.2 mb - 0.00 in0.0 mm 0.00 in0.0 mm
04:30 AM 27.1°F-2.7°C 26.7°F-2.9°C 98% Calm Calm -- 26.11 in884.2 mb - 0.00 in0.0 mm 0.00 in0.0 mm
04:35 AM 27.1°F-2.7°C 26.7°F-2.9°C 98% Calm Calm -- 26.10 in883.8 mb - 0.00 in0.0 mm 0.00 in0.0 mm
04:40 AM 27.1°F-2.7°C 26.7°F-2.9°C 98% Calm Calm -- 26.10 in883.8 mb - 0.00 in0.0 mm 0.00 in0.0 mm
04:45 AM 27.1°F-2.7°C 26.7°F-2.9°C 98% Calm Calm -- 26.11 in884.2 mb - 0.00 in0.0 mm 0.00 in0.0 mm
04:50 AM 27.1°F-2.7°C 26.7°F-2.9°C 98% Calm Calm -- 26.10 in883.8 mb - 0.00 in0.0 mm 0.00 in0.0 mm
04:55 AM 27.1°F-2.7°C 26.7°F-2.9°C 98% Calm Calm -- 26.10 in883.8 mb - 0.00 in0.0 mm 0.00 in0.0 mm
05:00 AM 27.1°F-2.7°C 26.7°F-2.9°C 98% Calm Calm -- 26.10 in883.8 mb - 0.00 in0.0 mm 0.00 in0.0 mm
05:10 AM 27.1°F-2.7°C 26.7°F-2.9°C 98% Calm Calm -- 26.10 in883.8 mb - 0.00 in0.0 mm 0.00 in0.0 mm
05:15 AM 27.1°F-2.7°C 26.7°F-2.9°C 98% Calm Calm -- 26.08 in883.2 mb - 0.00 in0.0 mm 0.00 in0.0 mm
05:20 AM 27.1°F-2.7°C 26.7°F-2.9°C 98% Calm Calm -- 26.08 in883.2 mb - 0.00 in0.0 mm 0.00 in0.0 mm
05:25 AM 27.1°F-2.7°C 26.7°F-2.9°C 98% Calm Calm -- 26.08 in883.2 mb - 0.00 in0.0 mm 0.00 in0.0 mm
05:30 AM 27.1°F-2.7°C 26.7°F-2.9°C 98% Calm Calm -- 26.08 in883.2 mb - 0.00 in0.0 mm 0.00 in0.0 mm
05:35 AM 27.1°F-2.7°C 26.7°F-2.9°C 98% Calm Calm -- 26.08 in883.2 mb - 0.00 in0.0 mm 0.00 in0.0 mm
05:40 AM 27.1°F-2.7°C 26.7°F-2.9°C 98% Calm Calm -- 26.08 in883.2 mb - 0.00 in0.0 mm 0.00 in0.0 mm
05:45 AM 27.1°F-2.7°C 26.7°F-2.9°C 98% Calm Calm -- 26.08 in883.2 mb - 0.00 in0.0 mm 0.00 in0.0 mm
05:50 AM 27.1°F-2.7°C 26.7°F-2.9°C 98% Calm Calm -- 26.08 in883.2 mb - 0.00 in0.0 mm 0.00 in0.0 mm
05:55 AM 27.1°F-2.7°C 26.7°F-2.9°C 98% Calm Calm -- 26.08 in883.2 mb - 0.00 in0.0 mm 0.00 in0.0 mm
06:00 AM 27.1°F-2.7°C 26.7°F-2.9°C 98% Calm Calm -- 26.08 in883.2 mb - 0.00 in0.0 mm 0.00 in0.0 mm
06:10 AM 27.1°F-2.7°C 26.7°F-2.9°C 98% Calm Calm -- 26.08 in883.2 mb - 0.00 in0.0 mm 0.00 in0.0 mm
06:15 AM 27.1°F-2.7°C 26.7°F-2.9°C 98% Calm Calm -- 26.08 in883.2 mb - 0.00 in0.0 mm 0.00 in0.0 mm
06:20 AM 27.1°F-2.7°C 26.7°F-2.9°C 98% Calm Calm -- 26.08 in883.2 mb - 0.00 in0.0 mm 0.00 in0.0 mm
06:25 AM 27.1°F-2.7°C 26.7°F-2.9°C 98% Calm Calm -- 26.08 in883.2 mb - 0.00 in0.0 mm 0.00 in0.0 mm
06:30 AM 27.1°F-2.7°C 26.7°F-2.9°C 98% Calm Calm -- 26.08 in883.2 mb - 0.00 in0.0 mm 0.00 in0.0 mm
06:35 AM 27.3°F-2.6°C 26.6°F-3.0°C 97% Calm Calm -- 26.08 in883.2 mb - 0.00 in0.0 mm 0.00 in0.0 mm
06:40 AM 27.1°F-2.7°C 26.7°F-2.9°C 98% Calm Calm -- 26.08 in883.2 mb - 0.00 in0.0 mm 0.00 in0.0 mm
06:45 AM 27.3°F-2.6°C 26.6°F-3.0°C 97% Calm Calm -- 26.08 in883.2 mb - 0.00 in0.0 mm 0.00 in0.0 mm
06:50 AM 27.3°F-2.6°C 26.6°F-3.0°C 97% Calm Calm -- 26.08 in883.2 mb - 0.00 in0.0 mm 0.00 in0.0 mm
06:55 AM 27.3°F-2.6°C 26.6°F-3.0°C 97% Calm Calm -- 26.08 in883.2 mb - 0.00 in0.0 mm 0.00 in0.0 mm
07:00 AM 27.3°F-2.6°C 26.6°F-3.0°C 97% Calm Calm -- 26.08 in883.2 mb - 0.00 in0.0 mm 0.00 in0.0 mm
07:10 AM 27.3°F-2.6°C 26.6°F-3.0°C 97% Calm Calm -- 26.08 in883.2 mb - 0.00 in0.0 mm 0.00 in0.0 mm
07:15 AM 27.3°F-2.6°C 26.6°F-3.0°C 97% Calm Calm -- 26.08 in883.2 mb - 0.00 in0.0 mm 0.00 in0.0 mm
07:20 AM 27.3°F-2.6°C 26.6°F-3.0°C 97% Calm Calm -- 26.08 in883.2 mb - 0.00 in0.0 mm 0.00 in0.0 mm
07:25 AM 27.3°F-2.6°C 26.6°F-3.0°C 97% Calm Calm -- 26.08 in883.2 mb - 0.00 in0.0 mm 0.00 in0.0 mm
07:30 AM 27.3°F-2.6°C 26.6°F-3.0°C 97% Calm Calm -- 26.08 in883.2 mb - 0.00 in0.0 mm 0.00 in0.0 mm
07:35 AM 27.3°F-2.6°C 26.6°F-3.0°C 97% Calm Calm -- 26.08 in883.2 mb - 0.00 in0.0 mm 0.00 in0.0 mm
07:40 AM 27.3°F-2.6°C 26.6°F-3.0°C 97% Calm Calm -- 26.01 in880.8 mb - 0.00 in0.0 mm 0.00 in0.0 mm
07:45 AM 27.5°F-2.5°C 26.5°F-3.1°C 96% Calm Calm -- 26.01 in880.8 mb - 0.00 in0.0 mm 0.00 in0.0 mm
07:50 AM 27.5°F-2.5°C 26.5°F-3.1°C 96% Calm Calm -- 26.01 in880.8 mb - 0.00 in0.0 mm 0.00 in0.0 mm
07:55 AM 27.5°F-2.5°C 26.5°F-3.1°C 96% Calm Calm -- 26.01 in880.8 mb - 0.00 in0.0 mm 0.00 in0.0 mm
08:00 AM 27.5°F-2.5°C 26.5°F-3.1°C 96% Calm Calm -- 26.01 in880.8 mb - 0.00 in0.0 mm 0.00 in0.0 mm
08:10 AM 27.5°F-2.5°C 26.5°F-3.1°C 96% Calm Calm -- 26.01 in880.8 mb - 0.00 in0.0 mm 0.00 in0.0 mm
08:15 AM 27.5°F-2.5°C 26.5°F-3.1°C 96% Calm Calm -- 26.02 in881.1 mb - 0.00 in0.0 mm 0.00 in0.0 mm
08:20 AM 27.5°F-2.5°C 26.5°F-3.1°C 96% Calm Calm -- 26.01 in880.8 mb - 0.00 in0.0 mm 0.00 in0.0 mm
08:25 AM 27.5°F-2.5°C 26.5°F-3.1°C 96% Calm Calm -- 26.02 in881.1 mb - 0.00 in0.0 mm 0.00 in0.0 mm
08:30 AM 27.5°F-2.5°C 26.5°F-3.1°C 96% Calm Calm -- 26.02 in881.1 mb - 0.00 in0.0 mm 0.00 in0.0 mm
08:35 AM 27.5°F-2.5°C 26.5°F-3.1°C 96% Calm Calm -- 26.02 in881.1 mb - 0.00 in0.0 mm 0.00 in0.0 mm
08:40 AM 27.5°F-2.5°C 26.5°F-3.1°C 96% Calm Calm -- 26.02 in881.1 mb - 0.00 in0.0 mm 0.00 in0.0 mm
08:45 AM 27.5°F-2.5°C 26.5°F-3.1°C 96% Calm Calm -- 26.02 in881.1 mb - 0.00 in0.0 mm 0.00 in0.0 mm
08:50 AM 27.5°F-2.5°C 26.5°F-3.1°C 96% Calm Calm -- 26.02 in881.1 mb - 0.00 in0.0 mm 0.00 in0.0 mm
08:55 AM 27.5°F-2.5°C 26.5°F-3.1°C 96% Calm Calm -- 26.02 in881.1 mb - 0.00 in0.0 mm 0.00 in0.0 mm
09:00 AM 27.5°F-2.5°C 26.5°F-3.1°C 96% Calm Calm -- 26.02 in881.1 mb - 0.00 in0.0 mm 0.00 in0.0 mm
09:10 AM 27.5°F-2.5°C 26.5°F-3.1°C 96% Calm Calm -- 26.02 in881.1 mb - 0.00 in0.0 mm 0.00 in0.0 mm
09:15 AM 27.7°F-2.4°C 26.7°F-2.9°C 96% Calm Calm -- 26.02 in881.1 mb - 0.00 in0.0 mm 0.00 in0.0 mm
09:20 AM 27.5°F-2.5°C 26.5°F-3.1°C 96% Calm Calm -- 26.02 in881.1 mb - 0.00 in0.0 mm 0.00 in0.0 mm
09:25 AM 27.5°F-2.5°C 26.5°F-3.1°C 96% Calm Calm -- 26.02 in881.1 mb - 0.00 in0.0 mm 0.00 in0.0 mm
09:30 AM 27.7°F-2.4°C 26.7°F-2.9°C 96% Calm Calm -- 26.02 in881.1 mb - 0.00 in0.0 mm 0.00 in0.0 mm
09:35 AM 27.9°F-2.3°C 26.6°F-3.0°C 95% Calm Calm -- 26.02 in881.1 mb - 0.00 in0.0 mm 0.00 in0.0 mm
09:40 AM 27.9°F-2.3°C 26.6°F-3.0°C 95% Calm Calm -- 26.02 in881.1 mb - 0.00 in0.0 mm 0.00 in0.0 mm
09:45 AM 27.9°F-2.3°C 26.6°F-3.0°C 95% Calm Calm -- 26.02 in881.1 mb - 0.00 in0.0 mm 0.00 in0.0 mm
09:50 AM 27.9°F-2.3°C 26.6°F-3.0°C 95% Calm Calm -- 26.02 in881.1 mb - 0.00 in0.0 mm 0.00 in0.0 mm
09:55 AM 27.9°F-2.3°C 26.6°F-3.0°C 95% Calm Calm -- 26.02 in881.1 mb - 0.00 in0.0 mm 0.00 in0.0 mm
10:00 AM 27.9°F-2.3°C 26.6°F-3.0°C 95% Calm Calm -- 26.02 in881.1 mb - 0.00 in0.0 mm 0.00 in0.0 mm
10:10 AM 27.9°F-2.3°C 26.6°F-3.0°C 95% Calm Calm -- 26.02 in881.1 mb - 0.00 in0.0 mm 0.00 in0.0 mm
10:15 AM 27.9°F-2.3°C 26.6°F-3.0°C 95% Calm Calm -- 26.02 in881.1 mb - 0.00 in0.0 mm 0.00 in0.0 mm
10:20 AM 27.9°F-2.3°C 26.6°F-3.0°C 95% Calm Calm -- 26.02 in881.1 mb - 0.00 in0.0 mm 0.00 in0.0 mm
10:25 AM 27.9°F-2.3°C 26.6°F-3.0°C 95% Calm Calm -- 26.02 in881.1 mb - 0.00 in0.0 mm 0.00 in0.0 mm
10:30 AM 28.0°F-2.2°C 26.5°F-3.1°C 94% Calm Calm -- 26.03 in881.5 mb - 0.00 in0.0 mm 0.00 in0.0 mm
10:35 AM 28.0°F-2.2°C 26.5°F-3.1°C 94% Calm Calm -- 26.03 in881.5 mb - 0.00 in0.0 mm 0.00 in0.0 mm
10:40 AM 28.0°F-2.2°C 26.5°F-3.1°C 94% Calm Calm -- 26.03 in881.5 mb - 0.00 in0.0 mm 0.00 in0.0 mm
10:45 AM 28.0°F-2.2°C 26.5°F-3.1°C 94% Calm Calm -- 26.03 in881.5 mb - 0.00 in0.0 mm 0.00 in0.0 mm
10:50 AM 28.0°F-2.2°C 26.5°F-3.1°C 94% Calm Calm -- 26.03 in881.5 mb - 0.00 in0.0 mm 0.00 in0.0 mm
10:55 AM 28.0°F-2.2°C 26.5°F-3.1°C 94% Calm Calm -- 26.03 in881.5 mb - 0.00 in0.0 mm 0.00 in0.0 mm
11:00 AM 28.0°F-2.2°C 26.5°F-3.1°C 94% Calm Calm -- 26.03 in881.5 mb - 0.00 in0.0 mm 0.00 in0.0 mm
11:10 AM 28.2°F-2.1°C 26.7°F-2.9°C 94% Calm Calm -- 26.03 in881.5 mb - 0.00 in0.0 mm 0.00 in0.0 mm
11:15 AM 28.2°F-2.1°C 26.7°F-2.9°C 94% Calm Calm -- 26.02 in881.1 mb - 0.00 in0.0 mm 0.00 in0.0 mm
11:20 AM 28.2°F-2.1°C 26.7°F-2.9°C 94% Calm Calm -- 26.02 in881.1 mb - 0.00 in0.0 mm 0.00 in0.0 mm
11:25 AM 28.2°F-2.1°C 26.7°F-2.9°C 94% Calm Calm -- 26.03 in881.5 mb - 0.00 in0.0 mm 0.00 in0.0 mm
11:30 AM 28.2°F-2.1°C 26.7°F-2.9°C 94% Calm Calm -- 26.03 in881.5 mb - 0.00 in0.0 mm 0.00 in0.0 mm
11:35 AM 28.2°F-2.1°C 26.7°F-2.9°C 94% Calm Calm -- 26.02 in881.1 mb - 0.00 in0.0 mm 0.00 in0.0 mm
11:40 AM 28.4°F-2.0°C 28.4°F-2.0°C 100% Calm Calm -- 26.01 in880.8 mb - 0.00 in0.0 mm 0.00 in0.0 mm
11:45 AM 28.4°F-2.0°C 28.4°F-2.0°C 100% Calm Calm -- 26.01 in880.8 mb - 0.00 in0.0 mm 0.00 in0.0 mm
11:50 AM 28.4°F-2.0°C 28.4°F-2.0°C 100% Calm Calm -- 26.00 in880.5 mb - 0.00 in0.0 mm 0.00 in0.0 mm
11:55 AM 28.4°F-2.0°C 28.4°F-2.0°C 100% Calm Calm -- 26.00 in880.5 mb - 0.00 in0.0 mm 0.00 in0.0 mm
12:00 PM 28.4°F-2.0°C 28.4°F-2.0°C 100% Calm Calm -- 26.00 in880.5 mb - 0.00 in0.0 mm 0.00 in0.0 mm
12:10 PM 28.6°F-1.9°C 28.3°F-2.1°C 99% Calm Calm -- 25.99 in880.1 mb - 0.00 in0.0 mm 0.00 in0.0 mm
12:15 PM 28.4°F-2.0°C 28.4°F-2.0°C 100% Calm Calm -- 26.00 in880.5 mb - 0.00 in0.0 mm 0.00 in0.0 mm
12:20 PM 28.6°F-1.9°C 28.3°F-2.1°C 99% Calm Calm -- 25.99 in880.1 mb - 0.00 in0.0 mm 0.00 in0.0 mm
12:25 PM 28.4°F-2.0°C 28.4°F-2.0°C 100% Calm Calm -- 26.00 in880.5 mb - 0.00 in0.0 mm 0.00 in0.0 mm
12:30 PM 28.6°F-1.9°C 28.3°F-2.1°C 99% Calm Calm -- 25.99 in880.1 mb - 0.00 in0.0 mm 0.00 in0.0 mm
12:35 PM 28.6°F-1.9°C 28.3°F-2.1°C 99% Calm Calm -- 25.99 in880.1 mb - 0.00 in0.0 mm 0.00 in0.0 mm
12:40 PM 28.6°F-1.9°C 28.3°F-2.1°C 99% Calm Calm -- 25.97 in879.4 mb - 0.00 in0.0 mm 0.00 in0.0 mm
12:45 PM 28.6°F-1.9°C 28.3°F-2.1°C 99% Calm Calm -- 25.99 in880.1 mb - 0.00 in0.0 mm 0.00 in0.0 mm
12:50 PM 28.6°F-1.9°C 28.3°F-2.1°C 99% Calm Calm -- 25.99 in880.1 mb - 0.00 in0.0 mm 0.00 in0.0 mm
12:55 PM 28.6°F-1.9°C 28.3°F-2.1°C 99% Calm Calm -- 25.97 in879.4 mb - 0.00 in0.0 mm 0.00 in0.0 mm
01:00 PM 28.8°F-1.8°C 28.5°F-1.9°C 99% Calm Calm -- 25.97 in879.4 mb - 0.00 in0.0 mm 0.00 in0.0 mm
01:10 PM 28.8°F-1.8°C 28.5°F-1.9°C 99% Calm Calm -- 25.97 in879.4 mb - 0.00 in0.0 mm 0.00 in0.0 mm
01:15 PM 28.8°F-1.8°C 28.5°F-1.9°C 99% Calm Calm -- 25.97 in879.4 mb - 0.00 in0.0 mm 0.00 in0.0 mm
01:20 PM 28.8°F-1.8°C 28.5°F-1.9°C 99% Calm Calm -- 25.97 in879.4 mb - 0.00 in0.0 mm 0.00 in0.0 mm
01:25 PM 28.8°F-1.8°C 28.5°F-1.9°C 99% Calm Calm -- 25.97 in879.4 mb - 0.00 in0.0 mm 0.00 in0.0 mm
01:30 PM 28.9°F-1.7°C 28.4°F-2.0°C 98% Calm Calm -- 25.97 in879.4 mb - 0.00 in0.0 mm 0.00 in0.0 mm
01:35 PM 28.8°F-1.8°C 28.5°F-1.9°C 99% Calm Calm -- 25.97 in879.4 mb - 0.00 in0.0 mm 0.00 in0.0 mm
01:40 PM 28.9°F-1.7°C 28.4°F-2.0°C 98% Calm Calm -- 25.97 in879.4 mb - 0.00 in0.0 mm 0.00 in0.0 mm
01:45 PM 28.9°F-1.7°C 28.4°F-2.0°C 98% Calm Calm -- 25.97 in879.4 mb - 0.00 in0.0 mm 0.00 in0.0 mm
01:50 PM 28.9°F-1.7°C 28.4°F-2.0°C 98% Calm Calm -- 25.97 in879.4 mb - 0.00 in0.0 mm 0.00 in0.0 mm
01:55 PM 28.9°F-1.7°C 28.4°F-2.0°C 98% Calm Calm -- 25.97 in879.4 mb - 0.00 in0.0 mm 0.00 in0.0 mm
02:00 PM 28.9°F-1.7°C 28.4°F-2.0°C 98% Calm Calm -- 25.97 in879.4 mb - 0.00 in0.0 mm 0.00 in0.0 mm
02:10 PM 28.9°F-1.7°C 28.4°F-2.0°C 98% Calm Calm -- 25.97 in879.4 mb - 0.00 in0.0 mm 0.00 in0.0 mm
02:15 PM 28.9°F-1.7°C 28.4°F-2.0°C 98% Calm Calm -- 25.97 in879.4 mb - 0.00 in0.0 mm 0.00 in0.0 mm
02:20 PM 29.1°F-1.6°C 28.4°F-2.0°C 97% Calm Calm -- 25.97 in879.4 mb - 0.00 in0.0 mm 0.00 in0.0 mm
02:25 PM 29.1°F-1.6°C 28.4°F-2.0°C 97% Calm Calm -- 25.97 in879.4 mb - 0.00 in0.0 mm 0.00 in0.0 mm
02:30 PM 28.9°F-1.7°C 28.4°F-2.0°C 98% Calm Calm -- 25.97 in879.4 mb - 0.00 in0.0 mm 0.00 in0.0 mm
02:35 PM 29.1°F-1.6°C 28.4°F-2.0°C 97% Calm Calm -- 25.97 in879.4 mb - 0.00 in0.0 mm 0.00 in0.0 mm
02:40 PM 29.1°F-1.6°C 28.4°F-2.0°C 97% Calm Calm -- 25.97 in879.4 mb - 0.00 in0.0 mm 0.00 in0.0 mm
02:45 PM 29.1°F-1.6°C 28.4°F-2.0°C 97% Calm Calm -- 25.97 in879.4 mb - 0.00 in0.0 mm 0.00 in0.0 mm
02:50 PM 29.1°F-1.6°C 28.4°F-2.0°C 97% Calm Calm -- 25.97 in879.4 mb - 0.00 in0.0 mm 0.00 in0.0 mm
02:55 PM 29.1°F-1.6°C 28.4°F-2.0°C 97% Calm Calm -- 25.97 in879.4 mb - 0.00 in0.0 mm 0.00 in0.0 mm
03:00 PM 29.1°F-1.6°C 28.4°F-2.0°C 97% Calm Calm -- 25.97 in879.4 mb - 0.00 in0.0 mm 0.00 in0.0 mm
03:10 PM 29.3°F-1.5°C 28.3°F-2.1°C 96% Calm Calm -- 25.97 in879.4 mb - 0.00 in0.0 mm 0.00 in0.0 mm
03:15 PM 29.3°F-1.5°C 28.3°F-2.1°C 96% Calm Calm -- 25.97 in879.4 mb - 0.00 in0.0 mm 0.00 in0.0 mm
03:20 PM 29.3°F-1.5°C 28.3°F-2.1°C 96% Calm Calm -- 25.97 in879.4 mb - 0.00 in0.0 mm 0.00 in0.0 mm
03:25 PM 29.3°F-1.5°C 28.3°F-2.1°C 96% Calm Calm -- 25.97 in879.4 mb - 0.00 in0.0 mm 0.00 in0.0 mm
03:30 PM 29.3°F-1.5°C 28.3°F-2.1°C 96% Calm Calm -- 25.97 in879.4 mb - 0.00 in0.0 mm 0.00 in0.0 mm
03:35 PM 29.3°F-1.5°C 28.3°F-2.1°C 96% Calm Calm -- 25.97 in879.4 mb - 0.00 in0.0 mm 0.00 in0.0 mm
03:40 PM 29.3°F-1.5°C 28.3°F-2.1°C 96% Calm Calm -- 25.97 in879.4 mb - 0.00 in0.0 mm 0.00 in0.0 mm
03:45 PM 29.3°F-1.5°C 28.3°F-2.1°C 96% Calm Calm -- 25.97 in879.4 mb - 0.00 in0.0 mm 0.00 in0.0 mm
03:50 PM 29.3°F-1.5°C 28.3°F-2.1°C 96% Calm Calm -- 25.97 in879.4 mb - 0.00 in0.0 mm 0.00 in0.0 mm
03:55 PM 29.3°F-1.5°C 28.3°F-2.1°C 96% Calm Calm -- 25.97 in879.4 mb - 0.00 in0.0 mm 0.00 in0.0 mm
04:00 PM 29.3°F-1.5°C 28.3°F-2.1°C 96% Calm Calm -- 25.97 in879.4 mb - 0.00 in0.0 mm 0.00 in0.0 mm
04:10 PM 29.3°F-1.5°C 28.3°F-2.1°C 96% Calm Calm -- 25.97 in879.4 mb - 0.00 in0.0 mm 0.00 in0.0 mm
04:15 PM 29.3°F-1.5°C 28.3°F-2.1°C 96% Calm Calm -- 25.97 in879.4 mb - 0.00 in0.0 mm 0.00 in0.0 mm
04:20 PM 29.3°F-1.5°C 28.3°F-2.1°C 96% Calm Calm -- 25.97 in879.4 mb - 0.00 in0.0 mm 0.00 in0.0 mm
04:25 PM 29.3°F-1.5°C 28.3°F-2.1°C 96% Calm Calm -- 25.97 in879.4 mb - 0.00 in0.0 mm 0.00 in0.0 mm
04:30 PM 29.3°F-1.5°C 28.3°F-2.1°C 96% Calm Calm -- 25.97 in879.4 mb - 0.00 in0.0 mm 0.00 in0.0 mm
04:35 PM 29.3°F-1.5°C 28.3°F-2.1°C 96% Calm Calm -- 25.97 in879.4 mb - 0.00 in0.0 mm 0.00 in0.0 mm
04:40 PM 29.3°F-1.5°C 28.3°F-2.1°C 96% Calm Calm -- 25.97 in879.4 mb - 0.00 in0.0 mm 0.00 in0.0 mm
04:45 PM 29.3°F-1.5°C 28.3°F-2.1°C 96% Calm Calm -- 25.97 in879.4 mb - 0.00 in0.0 mm 0.00 in0.0 mm
04:50 PM 29.3°F-1.5°C 28.3°F-2.1°C 96% Calm Calm -- 25.97 in879.4 mb - 0.00 in0.0 mm 0.00 in0.0 mm
04:55 PM 29.3°F-1.5°C 28.3°F-2.1°C 96% Calm Calm -- 25.97 in879.4 mb - 0.00 in0.0 mm 0.00 in0.0 mm
05:00 PM 29.3°F-1.5°C 28.3°F-2.1°C 96% Calm Calm -- 25.97 in879.4 mb - 0.00 in0.0 mm 0.00 in0.0 mm
05:10 PM 29.3°F-1.5°C 28.3°F-2.1°C 96% Calm Calm -- 25.97 in879.4 mb - 0.00 in0.0 mm 0.00 in0.0 mm
05:15 PM 29.3°F-1.5°C 28.3°F-2.1°C 96% Calm Calm -- 25.97 in879.4 mb - 0.00 in0.0 mm 0.00 in0.0 mm
05:20 PM 29.3°F-1.5°C 28.3°F-2.1°C 96% Calm Calm -- 25.97 in879.4 mb - 0.00 in0.0 mm 0.00 in0.0 mm
05:25 PM 29.3°F-1.5°C 28.3°F-2.1°C 96% Calm Calm -- 25.97 in879.4 mb - 0.00 in0.0 mm 0.00 in0.0 mm
05:30 PM 29.3°F-1.5°C 28.3°F-2.1°C 96% Calm Calm -- 25.97 in879.4 mb - 0.00 in0.0 mm 0.00 in0.0 mm
05:35 PM 29.3°F-1.5°C 28.3°F-2.1°C 96% Calm Calm -- 25.97 in879.4 mb - 0.00 in0.0 mm 0.00 in0.0 mm
05:40 PM 29.3°F-1.5°C 28.3°F-2.1°C 96% Calm Calm -- 25.97 in879.4 mb - 0.00 in0.0 mm 0.00 in0.0 mm
05:45 PM 29.3°F-1.5°C 28.3°F-2.1°C 96% Calm Calm -- 25.97 in879.4 mb - 0.00 in0.0 mm 0.00 in0.0 mm
05:50 PM 29.3°F-1.5°C 28.3°F-2.1°C 96% Calm Calm -- 25.97 in879.4 mb - 0.00 in0.0 mm 0.00 in0.0 mm
05:55 PM 29.3°F-1.5°C 28.3°F-2.1°C 96% Calm Calm -- 25.97 in879.4 mb - 0.00 in0.0 mm 0.00 in0.0 mm
06:00 PM 29.3°F-1.5°C 28.3°F-2.1°C 96% Calm Calm -- 25.97 in879.4 mb - 0.00 in0.0 mm 0.00 in0.0 mm
06:10 PM 29.3°F-1.5°C 28.3°F-2.1°C 96% Calm Calm -- 25.97 in879.4 mb - 0.00 in0.0 mm 0.00 in0.0 mm
06:15 PM 29.3°F-1.5°C 28.3°F-2.1°C 96% Calm Calm -- 25.97 in879.4 mb - 0.00 in0.0 mm 0.00 in0.0 mm
06:20 PM 29.3°F-1.5°C 28.3°F-2.1°C 96% Calm Calm -- 25.97 in879.4 mb - 0.00 in0.0 mm 0.00 in0.0 mm
06:25 PM 29.3°F-1.5°C 28.3°F-2.1°C 96% Calm Calm -- 25.97 in879.4 mb - 0.00 in0.0 mm 0.00 in0.0 mm
06:30 PM 29.3°F-1.5°C 28.3°F-2.1°C 96% Calm Calm -- 25.97 in879.4 mb - 0.00 in0.0 mm 0.00 in0.0 mm
06:35 PM 29.3°F-1.5°C 28.3°F-2.1°C 96% Calm Calm -- 25.97 in879.4 mb - 0.00 in0.0 mm 0.00 in0.0 mm
06:40 PM 29.3°F-1.5°C 28.3°F-2.1°C 96% Calm Calm -- 25.97 in879.4 mb - 0.00 in0.0 mm 0.00 in0.0 mm
06:45 PM 29.3°F-1.5°C 28.3°F-2.1°C 96% Calm Calm -- 25.97 in879.4 mb - 0.00 in0.0 mm 0.00 in0.0 mm
06:50 PM 29.3°F-1.5°C 28.3°F-2.1°C 96% Calm Calm -- 25.97 in879.4 mb - 0.00 in0.0 mm 0.00 in0.0 mm
06:55 PM 29.3°F-1.5°C 28.3°F-2.1°C 96% Calm Calm -- 25.97 in879.4 mb - 0.00 in0.0 mm 0.00 in0.0 mm
07:00 PM 29.3°F-1.5°C 28.3°F-2.1°C 96% Calm Calm -- 25.97 in879.4 mb - 0.00 in0.0 mm 0.00 in0.0 mm
07:10 PM 29.3°F-1.5°C 28.3°F-2.1°C 96% Calm Calm -- 25.97 in879.4 mb - 0.00 in0.0 mm 0.00 in0.0 mm
07:15 PM 29.3°F-1.5°C 28.3°F-2.1°C 96% Calm Calm -- 25.97 in879.4 mb - 0.00 in0.0 mm 0.00 in0.0 mm
07:20 PM 29.3°F-1.5°C 28.3°F-2.1°C 96% Calm Calm -- 25.97 in879.4 mb - 0.00 in0.0 mm 0.00 in0.0 mm
07:25 PM 29.3°F-1.5°C 28.3°F-2.1°C 96% Calm Calm -- 25.97 in879.4 mb - 0.00 in0.0 mm 0.00 in0.0 mm
07:30 PM 29.3°F-1.5°C 28.3°F-2.1°C 96% Calm Calm -- 25.97 in879.4 mb - 0.00 in0.0 mm 0.00 in0.0 mm
07:35 PM 29.3°F-1.5°C 28.3°F-2.1°C 96% Calm Calm -- 25.97 in879.4 mb - 0.00 in0.0 mm 0.00 in0.0 mm
07:40 PM 29.3°F-1.5°C 28.3°F-2.1°C 96% Calm Calm -- 25.97 in879.4 mb - 0.00 in0.0 mm 0.00 in0.0 mm
07:45 PM 29.3°F-1.5°C 28.3°F-2.1°C 96% Calm Calm -- 25.97 in879.4 mb - 0.00 in0.0 mm 0.00 in0.0 mm
07:50 PM 29.3°F-1.5°C 28.3°F-2.1°C 96% Calm Calm -- 25.97 in879.4 mb - 0.00 in0.0 mm 0.00 in0.0 mm
07:55 PM 29.5°F-1.4°C 28.5°F-1.9°C 96% Calm Calm -- 25.97 in879.4 mb - 0.00 in0.0 mm 0.00 in0.0 mm
08:00 PM 29.5°F-1.4°C 28.5°F-1.9°C 96% Calm Calm -- 25.97 in879.4 mb - 0.00 in0.0 mm 0.00 in0.0 mm
08:10 PM 29.5°F-1.4°C 28.5°F-1.9°C 96% Calm Calm -- 25.97 in879.4 mb - 0.00 in0.0 mm 0.00 in0.0 mm
08:15 PM 29.5°F-1.4°C 28.5°F-1.9°C 96% Calm Calm -- 25.97 in879.4 mb - 0.00 in0.0 mm 0.00 in0.0 mm
08:20 PM 29.5°F-1.4°C 28.5°F-1.9°C 96% Calm Calm -- 25.97 in879.4 mb - 0.00 in0.0 mm 0.00 in0.0 mm
08:25 PM 29.5°F-1.4°C 28.5°F-1.9°C 96% Calm Calm -- 25.97 in879.4 mb - 0.00 in0.0 mm 0.00 in0.0 mm
08:30 PM 29.5°F-1.4°C 28.5°F-1.9°C 96% Calm Calm -- 25.97 in879.4 mb - 0.00 in0.0 mm 0.00 in0.0 mm
08:35 PM 29.5°F-1.4°C 28.5°F-1.9°C 96% Calm Calm -- 25.97 in879.4 mb - 0.00 in0.0 mm 0.00 in0.0 mm
08:40 PM 29.5°F-1.4°C 28.5°F-1.9°C 96% Calm Calm -- 25.97 in879.4 mb - 0.00 in0.0 mm 0.00 in0.0 mm
08:45 PM 29.5°F-1.4°C 28.5°F-1.9°C 96% Calm Calm -- 25.97 in879.4 mb - 0.00 in0.0 mm 0.00 in0.0 mm
08:50 PM 29.7°F-1.3°C 28.4°F-2.0°C 95% Calm Calm -- 25.97 in879.4 mb - 0.00 in0.0 mm 0.00 in0.0 mm
08:55 PM 29.7°F-1.3°C 28.4°F-2.0°C 95% Calm Calm -- 25.97 in879.4 mb - 0.00 in0.0 mm 0.00 in0.0 mm
09:00 PM 29.5°F-1.4°C 28.5°F-1.9°C 96% Calm Calm -- 25.97 in879.4 mb - 0.00 in0.0 mm 0.00 in0.0 mm
09:10 PM 29.7°F-1.3°C 28.4°F-2.0°C 95% Calm Calm -- 25.97 in879.4 mb - 0.00 in0.0 mm 0.00 in0.0 mm
09:15 PM 29.7°F-1.3°C 28.4°F-2.0°C 95% Calm Calm -- 25.97 in879.4 mb - 0.00 in0.0 mm 0.00 in0.0 mm
09:20 PM 29.7°F-1.3°C 28.4°F-2.0°C 95% Calm Calm -- 25.97 in879.4 mb - 0.00 in0.0 mm 0.00 in0.0 mm
09:25 PM 29.7°F-1.3°C 28.4°F-2.0°C 95% Calm Calm -- 25.97 in879.4 mb - 0.00 in0.0 mm 0.00 in0.0 mm
09:30 PM 29.8°F-1.2°C 28.6°F-1.9°C 95% Calm Calm -- 25.97 in879.4 mb - 0.00 in0.0 mm 0.00 in0.0 mm
09:35 PM 29.8°F-1.2°C 28.6°F-1.9°C 95% Calm Calm -- 25.97 in879.4 mb - 0.00 in0.0 mm 0.00 in0.0 mm
09:40 PM 29.8°F-1.2°C 28.6°F-1.9°C 95% Calm Calm -- 25.97 in879.4 mb - 0.00 in0.0 mm 0.00 in0.0 mm
09:45 PM 29.8°F-1.2°C 28.6°F-1.9°C 95% Calm Calm -- 25.97 in879.4 mb - 0.00 in0.0 mm 0.00 in0.0 mm
09:50 PM 29.8°F-1.2°C 28.6°F-1.9°C 95% Calm Calm -- 25.97 in879.4 mb - 0.00 in0.0 mm 0.00 in0.0 mm
09:55 PM 29.8°F-1.2°C 28.6°F-1.9°C 95% Calm Calm -- 25.97 in879.4 mb - 0.00 in0.0 mm 0.00 in0.0 mm
10:00 PM 30.0°F-1.1°C 28.8°F-1.8°C 95% Calm Calm -- 25.97 in879.4 mb - 0.00 in0.0 mm 0.00 in0.0 mm
10:10 PM 30.0°F-1.1°C 28.8°F-1.8°C 95% Calm Calm -- 25.97 in879.4 mb - 0.00 in0.0 mm 0.00 in0.0 mm
10:15 PM 29.8°F-1.2°C 28.6°F-1.9°C 95% Calm Calm -- 25.97 in879.4 mb - 0.00 in0.0 mm 0.00 in0.0 mm
10:20 PM 29.8°F-1.2°C 28.6°F-1.9°C 95% Calm Calm -- 25.97 in879.4 mb - 0.00 in0.0 mm 0.00 in0.0 mm
10:25 PM 30.2°F-1.0°C 30.2°F-1.0°C 100% Calm Calm -- 25.86 in875.7 mb - 0.00 in0.0 mm 0.00 in0.0 mm
10:30 PM 30.2°F-1.0°C 30.2°F-1.0°C 100% Calm Calm -- 25.86 in875.7 mb - 0.00 in0.0 mm 0.00 in0.0 mm
10:35 PM 30.2°F-1.0°C 30.2°F-1.0°C 100% Calm Calm -- 25.86 in875.7 mb - 0.00 in0.0 mm 0.00 in0.0 mm
10:40 PM 30.2°F-1.0°C 30.2°F-1.0°C 100% Calm Calm -- 25.86 in875.7 mb - 0.00 in0.0 mm 0.00 in0.0 mm
10:45 PM 30.2°F-1.0°C 30.2°F-1.0°C 100% Calm Calm -- 25.86 in875.7 mb - 0.00 in0.0 mm 0.00 in0.0 mm
10:50 PM 30.4°F-0.9°C 30.1°F-1.1°C 99% Calm Calm -- 25.86 in875.7 mb - 0.00 in0.0 mm 0.00 in0.0 mm
10:55 PM 30.4°F-0.9°C 30.1°F-1.1°C 99% Calm Calm -- 25.86 in875.7 mb - 0.00 in0.0 mm 0.00 in0.0 mm
11:00 PM 30.4°F-0.9°C 30.1°F-1.1°C 99% Calm Calm -- 25.86 in875.7 mb - 0.00 in0.0 mm 0.00 in0.0 mm
11:10 PM 30.4°F-0.9°C 30.1°F-1.1°C 99% Calm Calm -- 25.86 in875.7 mb - 0.00 in0.0 mm 0.00 in0.0 mm
11:15 PM 30.4°F-0.9°C 30.1°F-1.1°C 99% Calm Calm -- 25.86 in875.7 mb - 0.00 in0.0 mm 0.00 in0.0 mm
11:20 PM 30.4°F-0.9°C 30.1°F-1.1°C 99% Calm Calm -- 25.86 in875.7 mb - 0.00 in0.0 mm 0.00 in0.0 mm
11:25 PM 30.4°F-0.9°C 30.1°F-1.1°C 99% Calm Calm -- 25.86 in875.7 mb - 0.00 in0.0 mm 0.00 in0.0 mm
11:30 PM 30.6°F-0.8°C 30.3°F-0.9°C 99% Calm Calm -- 25.87 in876.1 mb - 0.00 in0.0 mm 0.00 in0.0 mm
11:35 PM 30.6°F-0.8°C 30.3°F-0.9°C 99% Calm Calm -- 25.87 in876.1 mb - 0.00 in0.0 mm 0.00 in0.0 mm
11:40 PM 30.6°F-0.8°C 30.3°F-0.9°C 99% Calm Calm -- 25.88 in876.4 mb - 0.00 in0.0 mm 0.00 in0.0 mm
11:45 PM 30.6°F-0.8°C 30.3°F-0.9°C 99% Calm Calm -- 25.87 in876.1 mb - 0.00 in0.0 mm 0.00 in0.0 mm
11:50 PM 30.6°F-0.8°C 30.3°F-0.9°C 99% Calm Calm -- 25.87 in876.1 mb - 0.00 in0.0 mm 0.00 in0.0 mm
11:55 PM 30.6°F-0.8°C 30.3°F-0.9°C 99% Calm Calm -- 25.88 in876.4 mb - 0.00 in0.0 mm 0.00 in0.0 mm